Map

Track Data

SID SEASON NUMBER BASIN SUBBASIN NAME ISO_TIME NATURE LAT LON WMO_WIND WMO_PRES WMO_AGENCY TRACK_TYPE DIST2LAND LANDFALL IFLAG USA_AGENCY USA_ATCF_ID USA_LAT USA_LON USA_RECORD USA_STATUS USA_WIND USA_PRES USA_SSHS USA_R34_NE USA_R34_SE USA_R34_SW USA_R34_NW USA_R50_NE USA_R50_SE USA_R50_SW USA_R50_NW USA_R64_NE USA_R64_SE USA_R64_SW USA_R64_NW USA_POCI USA_ROCI USA_RMW USA_EYE TOKYO_LAT TOKYO_LON TOKYO_GRADE TOKYO_WIND TOKYO_PRES TOKYO_R50_DIR TOKYO_R50_LONG TOKYO_R50_SHORT TOKYO_R30_DIR TOKYO_R30_LONG TOKYO_R30_SHORT TOKYO_LAND CMA_LAT CMA_LON CMA_CAT CMA_WIND CMA_PRES HKO_LAT HKO_LON HKO_CAT HKO_WIND HKO_PRES NEWDELHI_LAT NEWDELHI_LON NEWDELHI_GRADE NEWDELHI_WIND NEWDELHI_PRES NEWDELHI_CI NEWDELHI_DP NEWDELHI_POCI REUNION_LAT REUNION_LON REUNION_TYPE REUNION_WIND REUNION_PRES REUNION_TNUM REUNION_CI REUNION_RMW REUNION_R34_NE REUNION_R34_SE REUNION_R34_SW REUNION_R34_NW REUNION_R50_NE REUNION_R50_SE REUNION_R50_SW REUNION_R50_NW REUNION_R64_NE REUNION_R64_SE REUNION_R64_SW REUNION_R64_NW BOM_LAT BOM_LON BOM_TYPE BOM_WIND BOM_PRES BOM_TNUM BOM_CI BOM_RMW BOM_R34_NE BOM_R34_SE BOM_R34_SW BOM_R34_NW BOM_R50_NE BOM_R50_SE BOM_R50_SW BOM_R50_NW BOM_R64_NE BOM_R64_SE BOM_R64_SW BOM_R64_NW BOM_ROCI BOM_POCI BOM_EYE BOM_POS_METHOD BOM_PRES_METHOD NADI_LAT NADI_LON NADI_CAT NADI_WIND NADI_PRES WELLINGTON_LAT WELLINGTON_LON WELLINGTON_WIND WELLINGTON_PRES DS824_LAT DS824_LON DS824_STAGE DS824_WIND DS824_PRES TD9636_LAT TD9636_LON TD9636_STAGE TD9636_WIND TD9636_PRES TD9635_LAT TD9635_LON TD9635_WIND TD9635_PRES TD9635_ROCI NEUMANN_LAT NEUMANN_LON NEUMANN_CLASS NEUMANN_WIND NEUMANN_PRES MLC_LAT MLC_LON MLC_CLASS MLC_WIND MLC_PRES USA_GUST BOM_GUST BOM_GUST_PER REUNION_GUST REUNION_GUST_PER USA_SEAHGT USA_SEARAD_NE USA_SEARAD_SE USA_SEARAD_SW USA_SEARAD_NW STORM_SPEED STORM_DIR
2008012N12123 2008 2 WP MM NOT_NAMED 2008-01-12 06:00:00 NR 12.2000 122.800 main 43 43 O_____________ jtwc_wp WP012008 12.2000 122.800 DB 15 1010 -3 1009 170 15 15 280
2008012N12123 2008 2 WP MM NOT_NAMED 2008-01-12 09:00:00 NR 12.3280 122.033 main 54 0 P_____________ WP012008 12.3280 122.033 DB 17 1008 -3 1009 170 15 15 278
2008012N12123 2008 2 WP MM NOT_NAMED 2008-01-12 12:00:00 NR 12.4000 121.300 main 0 0 O_____________ jtwc_wp WP012008 12.4000 121.300 DB 20 1006 -3 1009 170 15 14 272
2008012N12123 2008 2 WP MM NOT_NAMED 2008-01-12 15:00:00 NR 12.3798 120.627 main 39 39 P_____________ WP012008 12.3798 120.627 DB 20 1006 -3 1009 197 27 13 265
2008012N12123 2008 2 WP MM NOT_NAMED 2008-01-12 18:00:00 NR 12.3000 120.000 main 97 89 O_____________ jtwc_wp WP012008 12.3000 120.000 DB 20 1006 -3 1010 225 40 13 258
2008012N12123 2008 2 WP MM NOT_NAMED 2008-01-12 21:00:00 NR 12.1250 119.355 main 90 90 P_____________ WP012008 12.1250 119.355 DB 20 1005 -3 1010 225 40 12 260
2008012N12123 2008 2 WP MM NOT_NAMED 2008-01-13 00:00:00 NR 12.1000 118.800 main 117 117 O_____________ jtwc_wp WP012008 12.1000 118.800 DB 20 1005 -3 1010 225 40 10 293
2008012N12123 2008 2 WP MM NOT_NAMED 2008-01-13 03:00:00 NR 12.4971 118.443 main 180 180 P_____________ WP012008 12.4971 118.443 DB 22 1005 -3 1009 197 42 11 323
2008012N12123 2008 2 WP MM NOT_NAMED 2008-01-13 06:00:00 TS 13.0000 118.100 main 242 242 O_O___________ jtwc_wp WP012008 13.0000 118.100 TD 25 1005 -1 1009 170 45 13.0000 118.100 1 25 1002 11 314
2008012N12123 2008 2 WP MM NOT_NAMED 2008-01-13 09:00:00 TS 13.2826 117.609 main 292 292 P_P___________ WP012008 13.3401 117.573 TD 27 1002 -1 1008 165 45 13.1675 117.683 1 27 1001 11 293
2008012N12123 2008 2 WP MM NOT_NAMED 2008-01-13 12:00:00 TS 13.4143 117.086 main 346 346 O_O___________ jtwc_wp WP012008 13.5000 117.000 TD 30 1000 -1 1008 160 45 13.3000 117.200 1 29 1000 10 276
2008012N12123 2008 2 WP MM NOT_NAMED 2008-01-13 15:00:00 TS 13.3887 116.557 main 391 391 P_P___________ WP012008 13.4173 116.500 TD 30 1000 -1 1008 150 42 13.3601 116.615 1 29 1000 11 261
2008012N12123 2008 2 WP MM NOT_NAMED 2008-01-13 18:00:00 TS 13.2500 116.000 main 438 432 O_O___________ jtwc_wp WP012008 13.2000 116.000 TD 30 1000 -1 1008 140 40 13.3000 116.000 1 29 1000 11 252
2008012N12123 2008 2 WP MM NOT_NAMED 2008-01-13 21:00:00 TS 13.0473 115.457 main 469 469 P_P___________ WP012008 13.0149 115.465 TD 32 998 -1 1008 135 35 13.0798 115.450 1 29 1000 12 247
2008012N12123 2008 2 WP MM NOT_NAMED 2008-01-14 00:00:00 TS 12.8000 114.900 main 512 512 O_O___________ jtwc_wp WP012008 12.8000 114.900 TS 35 996 0 1008 130 30 12.8000 114.900 1 29 1000 12 248
2008012N12123 2008 2 WP MM NOT_NAMED 2008-01-14 03:00:00 TS 12.5825 114.289 main 521 456 P_P___________ WP012008 12.5575 114.293 TS 37 994 0 1008 132 32 12.6076 114.285 1 29 1000 13 249
2008012N12123 2008 2 WP MM NOT_NAMED 2008-01-14 06:00:00 TS 12.3500 113.700 main 456 404 O_O___________ jtwc_wp WP012008 12.3000 113.700 TS 40 993 0 1008 135 35 12.4000 113.700 1 29 1000 12 247
2008012N12123 2008 2 WP MM NOT_NAMED 2008-01-14 09:00:00 TS 12.1236 113.188 main 406 367 P_P___________ WP012008 12.1174 113.163 TS 37 996 0 1008 135 35 12.1299 113.213 1 29 1000 11 239
2008012N12123 2008 2 WP MM NOT_NAMED 2008-01-14 12:00:00 TS 11.8000 112.750 main 369 342 O_O___________ jtwc_wp WP012008 11.8000 112.700 TS 35 1000 0 1008 135 35 11.8000 112.800 1 29 1000 12 224
2008012N12123 2008 2 WP MM NOT_NAMED 2008-01-14 15:00:00 TS 11.2912 112.355 main 344 325 P_P___________ WP012008 11.1299 112.297 TS 32 1000 -1 1008 135 35 11.4524 112.413 1 29 1000 13 212
2008012N12123 2008 2 WP MM NOT_NAMED 2008-01-14 18:00:00 TS 10.7000 112.050 main 333 323 O_O___________ jtwc_wp WP012008 10.4000 112.000 TD 30 1000 -1 1008 135 35 11.0000 112.100 1 29 1000 13 203
2008012N12123 2008 2 WP MM NOT_NAMED 2008-01-14 21:00:00 TS 10.1162 111.853 main 345 335 P_P___________ WP012008 9.88994 111.828 TD 27 1002 -1 1008 135 35 10.3424 111.878 1 27 1001 12 197
2008012N12123 2008 2 WP MM NOT_NAMED 2008-01-15 00:00:00 TS 9.60000 111.700 main 357 355 O_O___________ jtwc_wp WP012008 9.50000 111.700 TD 25 1004 -1 1008 135 35 9.70000 111.700 1 25 1002 9 202
2008012N12123 2008 2 WP MM NOT_NAMED 2008-01-15 03:00:00 TS 9.24875 111.504 main 368 360 P_P___________ WP012008 9.17750 111.508 TD 25 1004 -1 1008 135 37 9.32000 111.500 1 25 1002 8 211
2008012N12123 2008 2 WP MM NOT_NAMED 2008-01-15 06:00:00 TS 8.95000 111.300 main 368 368 O_O___________ jtwc_wp WP012008 8.90000 111.300 TD 25 1004 -1 1008 135 40 9.00000 111.300 1 25 1002 8 209
2008012N12123 2008 2 WP MM NOT_NAMED 2008-01-15 09:00:00 TS 8.55621 111.119 main 389 389 P_P___________ WP012008 8.58495 111.123 TD 25 1004 -1 1008 135 45 8.52747 111.115 1 25 1002 9 208
2008012N12123 2008 2 WP MM NOT_NAMED 2008-01-15 12:00:00 TS 8.20000 110.900 main 413 409 O_O___________ jtwc_wp WP012008 8.30000 110.900 TD 25 1004 -1 1008 135 50 8.10000 110.900 1 25 1002 8 222
2008012N12123 2008 2 WP MM NOT_NAMED 2008-01-15 15:00:00 TS 7.97002 110.590 main 411 407 P_P___________ WP012008 8.08504 110.565 TD 25 1004 -1 1008 132 47 7.85501 110.615 1 25 1002 8 238
2008012N12123 2008 2 WP MM NOT_NAMED 2008-01-15 18:00:00 TS 7.80000 110.250 main 410 401 O_O___________ jtwc_wp WP012008 7.90000 110.200 TD 25 1004 -1 1008 130 45 7.70000 110.300 1 25 1002 7 241
2008012N12123 2008 2 WP MM NOT_NAMED 2008-01-15 21:00:00 TS 7.62495 109.954 main 410 399 P_P___________ WP012008 7.70745 109.900 TD 25 1004 -1 1008 130 45 7.54246 110.008 1 25 1002 7 240
2008012N12123 2008 2 WP MM NOT_NAMED 2008-01-16 00:00:00 TS 7.45000 109.650 main 404 375 O_O___________ jtwc_wp WP012008 7.50000 109.600 TD 25 1004 -1 1008 130 45 7.40000 109.700 1 25 1002 7 241
2008012N12123 2008 2 WP MM NOT_NAMED 2008-01-16 03:00:00 TS 7.27249 109.308 main 375 344 P_P___________ WP012008 7.26499 109.258 TD 22 1005 -1 1008 130 45 7.27999 109.358 1 22 1003 8 240
2008012N12123 2008 2 WP MM NOT_NAMED 2008-01-16 06:00:00 TS 7.04286 108.943 main 331 304 O_O___________ jtwc_wp WP012008 7.00000 108.900 DB 20 1007 -3 1008 130 45 7.10000 109.000 0 19 1004 9 233
2008012N12123 2008 2 WP MM NOT_NAMED 2008-01-16 09:00:00 TS 6.73500 108.582 main 293 257 P_P___________ WP012008 6.70747 108.550 DB 17 1008 -3 1009 130 45 6.79004 108.647 0 19 1004 10 228
2008012N12123 2008 2 WP MM NOT_NAMED 2008-01-16 12:00:00 TS 6.40000 108.220 main 257 225 O_O___________ jtwc_wp WP012008 6.40000 108.200 DB 15 1010 -3 1011 130 45 6.40000 108.300 0 19 1004 10 229
2008012N12123 2008 2 WP MM NOT_NAMED 2008-01-16 15:00:00 NR 6.09996 107.858 main 225 201 P_____________ WP012008 6.09996 107.858 DB 15 1010 -3 0 9 230
2008012N12123 2008 2 WP MM NOT_NAMED 2008-01-16 18:00:00 NR 5.80000 107.500 main 201 185 O_____________ jtwc_wp WP012008 5.80000 107.500 DB 15 1010 -3 10 230
2008012N12123 2008 2 WP MM NOT_NAMED 2008-01-16 21:00:00 NR 5.48496 107.123 main 192 183 P_____________ WP012008 5.48496 107.123 DB 15 1010 -3 10 233
2008012N12123 2008 2 WP MM NOT_NAMED 2008-01-17 00:00:00 NR 5.20000 106.700 main 197 197 O_____________ jtwc_wp WP012008 5.20000 106.700 DB 15 1010 -3 11 244
2008012N12123 2008 2 WP MM NOT_NAMED 2008-01-17 03:00:00 NR 5.02256 106.178 main 229 229 P_____________ WP012008 5.02256 106.178 DB 15 1010 -3 11 248
2008012N12123 2008 2 WP MM NOT_NAMED 2008-01-17 06:00:00 NR 4.80000 105.700 main 246 210 O_____________ jtwc_wp WP012008 4.80000 105.700 DB 15 1010 -3 10 230
2008012N12123 2008 2 WP MM NOT_NAMED 2008-01-17 09:00:00 NR 4.37994 105.405 main 210 191 P_____________ WP012008 4.37994 105.405 DB 15 1010 -3 10 209
2008012N12123 2008 2 WP MM NOT_NAMED 2008-01-17 12:00:00 NR 3.90000 105.200 main 193 166 O_____________ jtwc_wp WP012008 3.90000 105.200 DB 15 1010 -3 10 204
2008012N12123 2008 2 WP MM NOT_NAMED 2008-01-17 15:00:00 NR 3.47753 105.002 main 166 124 P_____________ WP012008 3.47753 105.002 DB 15 1010 -3 9 207
2008012N12123 2008 2 WP MM NOT_NAMED 2008-01-17 18:00:00 NR 3.10000 104.800 main 124 O_____________ jtwc_wp WP012008 3.10000 104.800 DB 15 1010 -3 9 208

Digital Typhoon Data and Search

About IBTrACS Database

This database is a web-friendly format of International Best Track Archive for Climate Stewardship (IBTrACS), a global best track data archive curated by NOAA dating back to 1842.

Updated: 2021-12-06